sensor_id;sensor_type;location;lat;lon;timestamp;P1;durP1;ratioP1;P2;durP2;ratioP2
10050;SDS011;5065;46.942;7.432;2024-01-30T00:01:58;5.97;;;4.17;;
10050;SDS011;5065;46.942;7.432;2024-01-30T00:04:26;4.60;;;3.33;;
10050;SDS011;5065;46.942;7.432;2024-01-30T00:06:57;10.33;;;4.00;;
10050;SDS011;5065;46.942;7.432;2024-01-30T00:09:24;4.93;;;4.07;;
10050;SDS011;5065;46.942;7.432;2024-01-30T00:11:51;3.83;;;3.13;;
10050;SDS011;5065;46.942;7.432;2024-01-30T00:14:18;4.63;;;4.23;;
10050;SDS011;5065;46.942;7.432;2024-01-30T00:16:45;4.57;;;3.40;;
10050;SDS011;5065;46.942;7.432;2024-01-30T00:19:12;4.13;;;3.40;;
10050;SDS011;5065;46.942;7.432;2024-01-30T00:21:41;5.30;;;3.03;;
10050;SDS011;5065;46.942;7.432;2024-01-30T00:24:08;4.43;;;3.10;;
10050;SDS011;5065;46.942;7.432;2024-01-30T00:26:35;3.90;;;3.10;;
10050;SDS011;5065;46.942;7.432;2024-01-30T00:29:03;3.60;;;3.30;;
10050;SDS011;5065;46.942;7.432;2024-01-30T00:31:30;3.10;;;2.50;;
10050;SDS011;5065;46.942;7.432;2024-01-30T00:33:57;7.13;;;3.97;;
10050;SDS011;5065;46.942;7.432;2024-01-30T00:36:24;3.57;;;3.00;;
10050;SDS011;5065;46.942;7.432;2024-01-30T00:38:53;5.70;;;4.10;;
10050;SDS011;5065;46.942;7.432;2024-01-30T00:41:20;4.80;;;3.33;;
10050;SDS011;5065;46.942;7.432;2024-01-30T00:43:47;7.40;;;3.57;;
10050;SDS011;5065;46.942;7.432;2024-01-30T00:46:14;4.37;;;3.47;;
10050;SDS011;5065;46.942;7.432;2024-01-30T00:48:41;3.63;;;3.20;;
10050;SDS011;5065;46.942;7.432;2024-01-30T00:51:08;4.20;;;3.27;;
10050;SDS011;5065;46.942;7.432;2024-01-30T00:53:36;4.30;;;3.60;;
10050;SDS011;5065;46.942;7.432;2024-01-30T00:56:04;4.20;;;2.93;;
10050;SDS011;5065;46.942;7.432;2024-01-30T00:58:32;3.53;;;2.90;;
10050;SDS011;5065;46.942;7.432;2024-01-30T01:00:59;4.20;;;3.40;;
10050;SDS011;5065;46.942;7.432;2024-01-30T01:03:26;3.93;;;3.10;;
10050;SDS011;5065;46.942;7.432;2024-01-30T01:05:53;4.37;;;3.13;;
10050;SDS011;5065;46.942;7.432;2024-01-30T01:08:20;4.77;;;3.40;;
10050;SDS011;5065;46.942;7.432;2024-01-30T01:10:47;4.53;;;3.93;;
10050;SDS011;5065;46.942;7.432;2024-01-30T01:13:16;6.40;;;3.07;;
10050;SDS011;5065;46.942;7.432;2024-01-30T01:15:43;6.77;;;3.57;;
10050;SDS011;5065;46.942;7.432;2024-01-30T01:18:10;8.43;;;3.40;;
10050;SDS011;5065;46.942;7.432;2024-01-30T01:20:37;3.77;;;3.37;;
10050;SDS011;5065;46.942;7.432;2024-01-30T01:23:04;6.07;;;3.63;;
10050;SDS011;5065;46.942;7.432;2024-01-30T01:25:32;3.93;;;2.77;;
10050;SDS011;5065;46.942;7.432;2024-01-30T01:27:59;3.93;;;3.03;;
10050;SDS011;5065;46.942;7.432;2024-01-30T01:30:28;3.80;;;3.33;;
10050;SDS011;5065;46.942;7.432;2024-01-30T01:32:55;3.97;;;2.93;;
10050;SDS011;5065;46.942;7.432;2024-01-30T01:35:26;8.13;;;3.27;;
10050;SDS011;5065;46.942;7.432;2024-01-30T01:37:53;5.27;;;3.57;;
10050;SDS011;5065;46.942;7.432;2024-01-30T01:40:22;4.80;;;3.27;;
10050;SDS011;5065;46.942;7.432;2024-01-30T01:42:49;4.20;;;2.90;;
10050;SDS011;5065;46.942;7.432;2024-01-30T01:45:17;3.27;;;2.83;;
10050;SDS011;5065;46.942;7.432;2024-01-30T01:47:47;5.60;;;3.27;;
10050;SDS011;5065;46.942;7.432;2024-01-30T01:50:16;3.17;;;2.87;;
10050;SDS011;5065;46.942;7.432;2024-01-30T01:52:45;2.97;;;2.27;;
10050;SDS011;5065;46.942;7.432;2024-01-30T01:55:14;3.33;;;2.83;;
10050;SDS011;5065;46.942;7.432;2024-01-30T01:57:42;4.70;;;3.60;;
10050;SDS011;5065;46.942;7.432;2024-01-30T02:00:10;2.50;;;2.30;;
10050;SDS011;5065;46.942;7.432;2024-01-30T02:02:39;7.03;;;3.23;;
10050;SDS011;5065;46.942;7.432;2024-01-30T02:05:08;4.50;;;2.77;;
10050;SDS011;5065;46.942;7.432;2024-01-30T02:07:35;3.83;;;3.03;;
10050;SDS011;5065;46.942;7.432;2024-01-30T02:10:02;5.03;;;2.83;;
10050;SDS011;5065;46.942;7.432;2024-01-30T02:12:29;7.50;;;3.17;;
10050;SDS011;5065;46.942;7.432;2024-01-30T02:14:57;2.80;;;2.40;;
10050;SDS011;5065;46.942;7.432;2024-01-30T02:17:24;4.07;;;3.07;;
10050;SDS011;5065;46.942;7.432;2024-01-30T02:19:51;3.20;;;2.90;;
10050;SDS011;5065;46.942;7.432;2024-01-30T02:22:20;4.63;;;2.97;;
10050;SDS011;5065;46.942;7.432;2024-01-30T02:24:48;2.70;;;2.50;;
10050;SDS011;5065;46.942;7.432;2024-01-30T02:27:15;2.97;;;2.40;;
10050;SDS011;5065;46.942;7.432;2024-01-30T02:29:42;3.50;;;2.53;;
10050;SDS011;5065;46.942;7.432;2024-01-30T02:32:10;4.47;;;2.43;;
10050;SDS011;5065;46.942;7.432;2024-01-30T02:34:37;3.93;;;3.03;;
10050;SDS011;5065;46.942;7.432;2024-01-30T02:37:04;3.10;;;2.77;;
10050;SDS011;5065;46.942;7.432;2024-01-30T02:39:32;4.33;;;2.77;;
10050;SDS011;5065;46.942;7.432;2024-01-30T02:41:59;3.07;;;2.47;;
10050;SDS011;5065;46.942;7.432;2024-01-30T02:44:26;3.43;;;2.40;;
10050;SDS011;5065;46.942;7.432;2024-01-30T02:46:56;3.03;;;2.73;;
10050;SDS011;5065;46.942;7.432;2024-01-30T02:49:23;3.30;;;2.30;;
10050;SDS011;5065;46.942;7.432;2024-01-30T02:51:51;4.90;;;3.40;;
10050;SDS011;5065;46.942;7.432;2024-01-30T02:54:19;2.67;;;2.47;;
10050;SDS011;5065;46.942;7.432;2024-01-30T02:56:47;4.60;;;2.77;;
10050;SDS011;5065;46.942;7.432;2024-01-30T02:59:14;5.33;;;2.93;;
10050;SDS011;5065;46.942;7.432;2024-01-30T03:01:42;3.50;;;2.70;;
10050;SDS011;5065;46.942;7.432;2024-01-30T03:04:10;4.23;;;2.70;;
10050;SDS011;5065;46.942;7.432;2024-01-30T03:06:37;3.33;;;3.00;;
10050;SDS011;5065;46.942;7.432;2024-01-30T03:09:05;4.17;;;2.77;;
10050;SDS011;5065;46.942;7.432;2024-01-30T03:11:34;3.80;;;2.93;;
10050;SDS011;5065;46.942;7.432;2024-01-30T03:14:02;5.77;;;3.43;;
10050;SDS011;5065;46.942;7.432;2024-01-30T03:16:30;4.33;;;3.17;;
10050;SDS011;5065;46.942;7.432;2024-01-30T03:18:57;3.83;;;2.67;;
10050;SDS011;5065;46.942;7.432;2024-01-30T03:21:26;3.50;;;2.80;;
10050;SDS011;5065;46.942;7.432;2024-01-30T03:23:53;3.17;;;2.70;;
10050;SDS011;5065;46.942;7.432;2024-01-30T03:26:20;4.20;;;3.37;;
10050;SDS011;5065;46.942;7.432;2024-01-30T03:28:47;5.43;;;3.63;;
10050;SDS011;5065;46.942;7.432;2024-01-30T03:31:16;3.43;;;3.07;;
10050;SDS011;5065;46.942;7.432;2024-01-30T03:33:43;3.57;;;2.90;;
10050;SDS011;5065;46.942;7.432;2024-01-30T03:36:10;3.20;;;2.90;;
10050;SDS011;5065;46.942;7.432;2024-01-30T03:38:37;4.87;;;3.33;;
10050;SDS011;5065;46.942;7.432;2024-01-30T03:41:07;3.30;;;2.83;;
10050;SDS011;5065;46.942;7.432;2024-01-30T03:43:34;5.13;;;3.40;;
10050;SDS011;5065;46.942;7.432;2024-01-30T03:46:02;4.07;;;3.23;;
10050;SDS011;5065;46.942;7.432;2024-01-30T03:48:31;4.47;;;3.13;;
10050;SDS011;5065;46.942;7.432;2024-01-30T03:50:58;3.90;;;2.90;;
10050;SDS011;5065;46.942;7.432;2024-01-30T03:53:25;3.93;;;2.80;;
10050;SDS011;5065;46.942;7.432;2024-01-30T03:55:53;4.50;;;3.10;;
10050;SDS011;5065;46.942;7.432;2024-01-30T03:58:20;3.97;;;2.43;;
10050;SDS011;5065;46.942;7.432;2024-01-30T04:00:47;3.37;;;2.60;;
10050;SDS011;5065;46.942;7.432;2024-01-30T04:03:15;3.93;;;2.83;;
10050;SDS011;5065;46.942;7.432;2024-01-30T04:05:43;4.07;;;2.83;;
10050;SDS011;5065;46.942;7.432;2024-01-30T04:08:11;3.67;;;3.00;;
10050;SDS011;5065;46.942;7.432;2024-01-30T04:10:38;3.67;;;2.67;;
10050;SDS011;5065;46.942;7.432;2024-01-30T04:13:06;3.00;;;2.70;;
10050;SDS011;5065;46.942;7.432;2024-01-30T04:15:34;3.93;;;2.87;;
10050;SDS011;5065;46.942;7.432;2024-01-30T04:18:01;2.70;;;2.40;;
10050;SDS011;5065;46.942;7.432;2024-01-30T04:20:29;3.53;;;2.80;;
10050;SDS011;5065;46.942;7.432;2024-01-30T04:22:57;3.40;;;3.10;;
10050;SDS011;5065;46.942;7.432;2024-01-30T04:25:24;3.40;;;3.00;;
10050;SDS011;5065;46.942;7.432;2024-01-30T04:27:51;4.50;;;3.40;;
10050;SDS011;5065;46.942;7.432;2024-01-30T04:30:19;4.07;;;2.93;;
10050;SDS011;5065;46.942;7.432;2024-01-30T04:32:46;3.10;;;2.70;;
10050;SDS011;5065;46.942;7.432;2024-01-30T04:35:13;4.53;;;3.33;;
10050;SDS011;5065;46.942;7.432;2024-01-30T04:37:40;3.80;;;2.57;;
10050;SDS011;5065;46.942;7.432;2024-01-30T04:40:09;3.13;;;2.80;;
10050;SDS011;5065;46.942;7.432;2024-01-30T04:42:36;5.63;;;3.43;;
10050;SDS011;5065;46.942;7.432;2024-01-30T04:45:05;4.13;;;2.80;;
10050;SDS011;5065;46.942;7.432;2024-01-30T04:47:33;3.27;;;2.67;;
10050;SDS011;5065;46.942;7.432;2024-01-30T04:50:01;5.67;;;3.07;;
10050;SDS011;5065;46.942;7.432;2024-01-30T04:52:29;4.13;;;2.90;;
10050;SDS011;5065;46.942;7.432;2024-01-30T04:54:57;4.70;;;2.80;;
10050;SDS011;5065;46.942;7.432;2024-01-30T04:57:25;3.13;;;2.50;;
10050;SDS011;5065;46.942;7.432;2024-01-30T04:59:53;5.03;;;2.93;;
10050;SDS011;5065;46.942;7.432;2024-01-30T05:02:20;6.50;;;3.73;;
10050;SDS011;5065;46.942;7.432;2024-01-30T05:04:47;2.80;;;2.53;;
10050;SDS011;5065;46.942;7.432;2024-01-30T05:07:14;3.80;;;2.60;;
10050;SDS011;5065;46.942;7.432;2024-01-30T05:09:42;3.20;;;2.57;;
10050;SDS011;5065;46.942;7.432;2024-01-30T05:12:09;4.77;;;2.93;;
10050;SDS011;5065;46.942;7.432;2024-01-30T05:14:38;2.13;;;2.00;;
10050;SDS011;5065;46.942;7.432;2024-01-30T05:17:05;4.87;;;2.60;;
10050;SDS011;5065;46.942;7.432;2024-01-30T05:19:33;3.87;;;3.03;;
10050;SDS011;5065;46.942;7.432;2024-01-30T05:22:00;4.73;;;3.53;;
10050;SDS011;5065;46.942;7.432;2024-01-30T05:24:27;6.83;;;4.20;;
10050;SDS011;5065;46.942;7.432;2024-01-30T05:26:54;3.27;;;2.60;;
10050;SDS011;5065;46.942;7.432;2024-01-30T05:29:21;3.43;;;2.40;;
10050;SDS011;5065;46.942;7.432;2024-01-30T05:31:50;3.20;;;2.30;;
10050;SDS011;5065;46.942;7.432;2024-01-30T05:34:17;3.90;;;2.60;;
10050;SDS011;5065;46.942;7.432;2024-01-30T05:36:44;3.10;;;2.43;;
10050;SDS011;5065;46.942;7.432;2024-01-30T05:39:11;3.07;;;2.77;;
10050;SDS011;5065;46.942;7.432;2024-01-30T05:41:38;5.40;;;2.77;;
10050;SDS011;5065;46.942;7.432;2024-01-30T05:44:06;3.80;;;2.47;;
10050;SDS011;5065;46.942;7.432;2024-01-30T05:46:33;3.90;;;2.60;;
10050;SDS011;5065;46.942;7.432;2024-01-30T05:49:03;3.23;;;2.40;;
10050;SDS011;5065;46.942;7.432;2024-01-30T05:51:31;5.30;;;2.57;;
10050;SDS011;5065;46.942;7.432;2024-01-30T05:53:58;3.20;;;2.40;;
10050;SDS011;5065;46.942;7.432;2024-01-30T05:56:28;3.37;;;2.77;;
10050;SDS011;5065;46.942;7.432;2024-01-30T05:58:55;2.63;;;2.27;;
10050;SDS011;5065;46.942;7.432;2024-01-30T06:01:22;2.77;;;2.43;;
10050;SDS011;5065;46.942;7.432;2024-01-30T06:03:49;3.13;;;2.30;;
10050;SDS011;5065;46.942;7.432;2024-01-30T06:06:18;2.23;;;2.10;;
10050;SDS011;5065;46.942;7.432;2024-01-30T06:08:45;3.03;;;2.60;;
10050;SDS011;5065;46.942;7.432;2024-01-30T06:11:12;2.30;;;2.10;;
10050;SDS011;5065;46.942;7.432;2024-01-30T06:13:39;4.83;;;3.00;;
10050;SDS011;5065;46.942;7.432;2024-01-30T06:16:09;7.03;;;2.97;;
10050;SDS011;5065;46.942;7.432;2024-01-30T06:18:36;2.73;;;2.30;;
10050;SDS011;5065;46.942;7.432;2024-01-30T06:21:04;2.47;;;2.27;;
10050;SDS011;5065;46.942;7.432;2024-01-30T06:23:34;3.50;;;2.83;;
10050;SDS011;5065;46.942;7.432;2024-01-30T06:26:01;3.77;;;2.57;;
10050;SDS011;5065;46.942;7.432;2024-01-30T06:28:28;2.40;;;2.10;;
10050;SDS011;5065;46.942;7.432;2024-01-30T06:30:55;3.03;;;2.50;;
10050;SDS011;5065;46.942;7.432;2024-01-30T06:33:22;4.30;;;2.80;;
10050;SDS011;5065;46.942;7.432;2024-01-30T06:35:49;4.63;;;2.47;;
10050;SDS011;5065;46.942;7.432;2024-01-30T06:38:17;3.87;;;3.00;;
10050;SDS011;5065;46.942;7.432;2024-01-30T06:40:45;2.43;;;2.20;;
10050;SDS011;5065;46.942;7.432;2024-01-30T06:43:12;5.00;;;2.70;;
10050;SDS011;5065;46.942;7.432;2024-01-30T06:45:39;4.47;;;2.97;;
10050;SDS011;5065;46.942;7.432;2024-01-30T06:48:07;2.50;;;2.30;;
10050;SDS011;5065;46.942;7.432;2024-01-30T06:50:34;2.80;;;2.47;;
10050;SDS011;5065;46.942;7.432;2024-01-30T06:53:01;3.10;;;2.57;;
10050;SDS011;5065;46.942;7.432;2024-01-30T06:55:29;4.07;;;3.40;;
10050;SDS011;5065;46.942;7.432;2024-01-30T06:57:57;4.93;;;3.03;;
10050;SDS011;5065;46.942;7.432;2024-01-30T07:00:24;9.07;;;3.17;;
10050;SDS011;5065;46.942;7.432;2024-01-30T07:02:52;5.57;;;3.10;;
10050;SDS011;5065;46.942;7.432;2024-01-30T07:05:19;3.30;;;3.00;;
10050;SDS011;5065;46.942;7.432;2024-01-30T07:07:47;5.47;;;3.63;;
10050;SDS011;5065;46.942;7.432;2024-01-30T07:10:14;3.80;;;3.23;;
10050;SDS011;5065;46.942;7.432;2024-01-30T07:12:41;5.13;;;4.20;;
10050;SDS011;5065;46.942;7.432;2024-01-30T07:15:10;4.37;;;3.17;;
10050;SDS011;5065;46.942;7.432;2024-01-30T07:17:43;6.47;;;3.83;;
10050;SDS011;5065;46.942;7.432;2024-01-30T07:20:11;4.70;;;3.50;;
10050;SDS011;5065;46.942;7.432;2024-01-30T07:22:38;6.93;;;4.00;;
10050;SDS011;5065;46.942;7.432;2024-01-30T07:25:06;4.33;;;3.30;;
10050;SDS011;5065;46.942;7.432;2024-01-30T07:27:34;3.80;;;3.40;;
10050;SDS011;5065;46.942;7.432;2024-01-30T07:30:01;5.70;;;3.30;;
10050;SDS011;5065;46.942;7.432;2024-01-30T07:32:30;4.73;;;3.30;;
10050;SDS011;5065;46.942;7.432;2024-01-30T07:34:57;12.03;;;4.00;;
10050;SDS011;5065;46.942;7.432;2024-01-30T07:37:25;6.97;;;3.87;;
10050;SDS011;5065;46.942;7.432;2024-01-30T07:39:53;5.80;;;3.27;;
10050;SDS011;5065;46.942;7.432;2024-01-30T07:42:20;6.20;;;4.00;;
10050;SDS011;5065;46.942;7.432;2024-01-30T07:44:48;4.97;;;3.70;;
10050;SDS011;5065;46.942;7.432;2024-01-30T07:47:15;4.57;;;3.00;;
10050;SDS011;5065;46.942;7.432;2024-01-30T07:49:43;4.83;;;3.23;;
10050;SDS011;5065;46.942;7.432;2024-01-30T07:52:11;3.77;;;3.37;;
10050;SDS011;5065;46.942;7.432;2024-01-30T07:54:50;5.57;;;3.57;;
10050;SDS011;5065;46.942;7.432;2024-01-30T07:57:18;3.90;;;3.50;;
10050;SDS011;5065;46.942;7.432;2024-01-30T07:59:45;3.57;;;3.23;;
10050;SDS011;5065;46.942;7.432;2024-01-30T08:02:12;4.53;;;2.67;;
10050;SDS011;5065;46.942;7.432;2024-01-30T08:04:39;3.00;;;2.47;;
10050;SDS011;5065;46.942;7.432;2024-01-30T08:07:08;4.13;;;3.07;;
10050;SDS011;5065;46.942;7.432;2024-01-30T08:09:35;4.30;;;3.07;;
10050;SDS011;5065;46.942;7.432;2024-01-30T08:12:02;4.50;;;3.37;;
10050;SDS011;5065;46.942;7.432;2024-01-30T08:14:30;3.47;;;2.77;;
10050;SDS011;5065;46.942;7.432;2024-01-30T08:16:58;4.50;;;2.47;;
10050;SDS011;5065;46.942;7.432;2024-01-30T08:19:26;3.63;;;2.53;;
10050;SDS011;5065;46.942;7.432;2024-01-30T08:21:53;3.63;;;2.97;;
10050;SDS011;5065;46.942;7.432;2024-01-30T08:24:22;3.47;;;2.77;;
10050;SDS011;5065;46.942;7.432;2024-01-30T08:26:49;5.53;;;3.40;;
10050;SDS011;5065;46.942;7.432;2024-01-30T08:29:16;4.07;;;2.60;;
10050;SDS011;5065;46.942;7.432;2024-01-30T08:31:43;4.10;;;2.57;;
10050;SDS011;5065;46.942;7.432;2024-01-30T08:34:11;5.07;;;3.03;;
10050;SDS011;5065;46.942;7.432;2024-01-30T08:36:38;3.07;;;2.23;;
10050;SDS011;5065;46.942;7.432;2024-01-30T08:39:05;4.03;;;3.23;;
10050;SDS011;5065;46.942;7.432;2024-01-30T08:41:34;4.23;;;3.27;;
10050;SDS011;5065;46.942;7.432;2024-01-30T08:44:01;5.87;;;2.70;;
10050;SDS011;5065;46.942;7.432;2024-01-30T08:46:29;8.63;;;2.67;;
10050;SDS011;5065;46.942;7.432;2024-01-30T08:48:56;4.17;;;3.07;;
10050;SDS011;5065;46.942;7.432;2024-01-30T08:51:23;3.80;;;3.40;;
10050;SDS011;5065;46.942;7.432;2024-01-30T08:53:51;6.97;;;3.53;;
10050;SDS011;5065;46.942;7.432;2024-01-30T08:56:19;3.73;;;2.87;;
10050;SDS011;5065;46.942;7.432;2024-01-30T08:58:47;2.90;;;2.70;;
10050;SDS011;5065;46.942;7.432;2024-01-30T09:01:15;3.57;;;3.10;;
10050;SDS011;5065;46.942;7.432;2024-01-30T09:03:42;4.40;;;2.97;;
10050;SDS011;5065;46.942;7.432;2024-01-30T09:06:11;4.63;;;3.30;;
10050;SDS011;5065;46.942;7.432;2024-01-30T09:08:39;7.00;;;2.53;;
10050;SDS011;5065;46.942;7.432;2024-01-30T09:11:08;3.67;;;2.93;;
10050;SDS011;5065;46.942;7.432;2024-01-30T09:13:36;2.93;;;2.60;;
10050;SDS011;5065;46.942;7.432;2024-01-30T09:16:05;8.03;;;3.30;;
10050;SDS011;5065;46.942;7.432;2024-01-30T09:18:32;3.13;;;2.53;;
10050;SDS011;5065;46.942;7.432;2024-01-30T09:21:00;3.97;;;2.70;;
10050;SDS011;5065;46.942;7.432;2024-01-30T09:23:27;3.53;;;2.93;;
10050;SDS011;5065;46.942;7.432;2024-01-30T09:25:54;2.83;;;2.53;;
10050;SDS011;5065;46.942;7.432;2024-01-30T09:28:22;3.87;;;2.70;;
10050;SDS011;5065;46.942;7.432;2024-01-30T09:30:49;2.90;;;2.60;;
10050;SDS011;5065;46.942;7.432;2024-01-30T09:33:21;7.43;;;2.70;;
10050;SDS011;5065;46.942;7.432;2024-01-30T09:35:48;2.73;;;2.40;;
10050;SDS011;5065;46.942;7.432;2024-01-30T09:38:16;2.97;;;2.67;;
10050;SDS011;5065;46.942;7.432;2024-01-30T09:40:48;3.87;;;2.77;;
10050;SDS011;5065;46.942;7.432;2024-01-30T09:43:22;2.97;;;2.63;;
10050;SDS011;5065;46.942;7.432;2024-01-30T09:45:51;4.30;;;3.30;;
10050;SDS011;5065;46.942;7.432;2024-01-30T09:48:22;3.53;;;2.73;;
10050;SDS011;5065;46.942;7.432;2024-01-30T09:50:50;4.20;;;2.60;;
10050;SDS011;5065;46.942;7.432;2024-01-30T09:53:18;4.77;;;3.10;;
10050;SDS011;5065;46.942;7.432;2024-01-30T09:55:46;4.33;;;2.87;;
10050;SDS011;5065;46.942;7.432;2024-01-30T09:58:14;3.17;;;2.80;;
10050;SDS011;5065;46.942;7.432;2024-01-30T10:00:41;3.80;;;2.53;;
10050;SDS011;5065;46.942;7.432;2024-01-30T10:03:09;2.83;;;2.50;;
10050;SDS011;5065;46.942;7.432;2024-01-30T10:05:37;4.77;;;3.30;;
10050;SDS011;5065;46.942;7.432;2024-01-30T10:08:09;4.00;;;3.07;;
10050;SDS011;5065;46.942;7.432;2024-01-30T10:10:36;4.00;;;2.80;;
10050;SDS011;5065;46.942;7.432;2024-01-30T10:13:03;4.00;;;3.20;;
10050;SDS011;5065;46.942;7.432;2024-01-30T10:15:30;5.03;;;3.53;;
10050;SDS011;5065;46.942;7.432;2024-01-30T10:18:00;9.00;;;5.13;;
10050;SDS011;5065;46.942;7.432;2024-01-30T10:20:27;4.33;;;2.83;;
10050;SDS011;5065;46.942;7.432;2024-01-30T10:22:56;3.67;;;3.03;;
10050;SDS011;5065;46.942;7.432;2024-01-30T10:25:23;4.30;;;2.87;;
10050;SDS011;5065;46.942;7.432;2024-01-30T10:27:54;4.23;;;2.73;;
10050;SDS011;5065;46.942;7.432;2024-01-30T10:30:21;6.40;;;3.33;;
10050;SDS011;5065;46.942;7.432;2024-01-30T10:32:49;4.00;;;2.93;;
10050;SDS011;5065;46.942;7.432;2024-01-30T10:35:16;7.73;;;2.80;;
10050;SDS011;5065;46.942;7.432;2024-01-30T10:37:44;3.50;;;2.73;;
10050;SDS011;5065;46.942;7.432;2024-01-30T10:40:15;4.80;;;3.00;;
10050;SDS011;5065;46.942;7.432;2024-01-30T10:42:43;4.77;;;2.10;;
10050;SDS011;5065;46.942;7.432;2024-01-30T10:45:11;3.37;;;2.73;;
10050;SDS011;5065;46.942;7.432;2024-01-30T10:47:42;4.77;;;3.40;;
10050;SDS011;5065;46.942;7.432;2024-01-30T10:50:14;4.20;;;3.13;;
10050;SDS011;5065;46.942;7.432;2024-01-30T10:52:42;4.20;;;2.70;;
10050;SDS011;5065;46.942;7.432;2024-01-30T10:55:09;3.40;;;3.07;;
10050;SDS011;5065;46.942;7.432;2024-01-30T10:57:38;5.77;;;3.43;;
10050;SDS011;5065;46.942;7.432;2024-01-30T11:00:07;4.10;;;3.30;;
10050;SDS011;5065;46.942;7.432;2024-01-30T11:02:36;5.20;;;3.87;;
10050;SDS011;5065;46.942;7.432;2024-01-30T11:05:04;6.93;;;3.30;;
10050;SDS011;5065;46.942;7.432;2024-01-30T11:07:32;5.20;;;3.23;;
10050;SDS011;5065;46.942;7.432;2024-01-30T11:10:00;4.50;;;3.30;;
10050;SDS011;5065;46.942;7.432;2024-01-30T11:12:29;4.80;;;3.40;;
10050;SDS011;5065;46.942;7.432;2024-01-30T11:15:03;5.93;;;3.63;;
10050;SDS011;5065;46.942;7.432;2024-01-30T11:17:44;5.50;;;3.73;;
10050;SDS011;5065;46.942;7.432;2024-01-30T11:20:17;4.43;;;3.13;;
10050;SDS011;5065;46.942;7.432;2024-01-30T11:22:46;5.57;;;4.20;;
10050;SDS011;5065;46.942;7.432;2024-01-30T11:25:14;6.23;;;4.33;;
10050;SDS011;5065;46.942;7.432;2024-01-30T11:27:43;5.17;;;4.17;;
10050;SDS011;5065;46.942;7.432;2024-01-30T11:30:20;5.87;;;3.87;;
10050;SDS011;5065;46.942;7.432;2024-01-30T11:32:57;4.47;;;4.00;;
10050;SDS011;5065;46.942;7.432;2024-01-30T11:35:27;6.17;;;4.17;;
10050;SDS011;5065;46.942;7.432;2024-01-30T11:37:57;6.47;;;5.00;;
10050;SDS011;5065;46.942;7.432;2024-01-30T11:40:26;7.63;;;3.93;;
10050;SDS011;5065;46.942;7.432;2024-01-30T11:42:54;7.40;;;4.63;;
10050;SDS011;5065;46.942;7.432;2024-01-30T11:45:23;8.67;;;4.43;;
10050;SDS011;5065;46.942;7.432;2024-01-30T11:47:51;5.93;;;3.87;;
10050;SDS011;5065;46.942;7.432;2024-01-30T11:50:21;6.17;;;4.43;;
10050;SDS011;5065;46.942;7.432;2024-01-30T11:52:48;5.83;;;4.00;;
10050;SDS011;5065;46.942;7.432;2024-01-30T11:55:15;6.93;;;4.30;;
10050;SDS011;5065;46.942;7.432;2024-01-30T11:57:43;6.50;;;3.83;;
10050;SDS011;5065;46.942;7.432;2024-01-30T12:00:14;7.23;;;4.50;;
10050;SDS011;5065;46.942;7.432;2024-01-30T12:02:48;5.77;;;4.20;;
10050;SDS011;5065;46.942;7.432;2024-01-30T12:05:20;5.87;;;4.50;;
10050;SDS011;5065;46.942;7.432;2024-01-30T12:07:49;7.30;;;4.37;;
10050;SDS011;5065;46.942;7.432;2024-01-30T12:10:16;7.20;;;4.73;;
10050;SDS011;5065;46.942;7.432;2024-01-30T12:12:45;6.67;;;4.57;;
10050;SDS011;5065;46.942;7.432;2024-01-30T12:15:13;5.43;;;4.13;;
10050;SDS011;5065;46.942;7.432;2024-01-30T12:17:41;6.33;;;4.47;;
10050;SDS011;5065;46.942;7.432;2024-01-30T12:20:11;4.83;;;3.83;;
10050;SDS011;5065;46.942;7.432;2024-01-30T12:22:41;5.93;;;3.87;;
10050;SDS011;5065;46.942;7.432;2024-01-30T12:25:09;5.20;;;4.07;;
10050;SDS011;5065;46.942;7.432;2024-01-30T12:27:38;6.17;;;4.07;;
10050;SDS011;5065;46.942;7.432;2024-01-30T12:30:06;5.40;;;4.13;;
10050;SDS011;5065;46.942;7.432;2024-01-30T12:32:35;10.30;;;3.87;;
10050;SDS011;5065;46.942;7.432;2024-01-30T12:35:02;6.57;;;4.07;;
10050;SDS011;5065;46.942;7.432;2024-01-30T12:37:31;6.80;;;4.30;;
10050;SDS011;5065;46.942;7.432;2024-01-30T12:39:58;6.53;;;4.67;;
10050;SDS011;5065;46.942;7.432;2024-01-30T12:42:26;6.40;;;4.20;;
10050;SDS011;5065;46.942;7.432;2024-01-30T12:44:54;5.10;;;3.90;;
10050;SDS011;5065;46.942;7.432;2024-01-30T12:47:23;7.43;;;3.93;;
10050;SDS011;5065;46.942;7.432;2024-01-30T12:49:53;4.53;;;3.90;;
10050;SDS011;5065;46.942;7.432;2024-01-30T12:52:20;6.30;;;4.73;;
10050;SDS011;5065;46.942;7.432;2024-01-30T12:54:51;5.07;;;4.13;;
10050;SDS011;5065;46.942;7.432;2024-01-30T12:57:18;5.17;;;4.37;;
10050;SDS011;5065;46.942;7.432;2024-01-30T12:59:45;6.00;;;4.13;;
10050;SDS011;5065;46.942;7.432;2024-01-30T13:02:13;7.30;;;5.17;;
10050;SDS011;5065;46.942;7.432;2024-01-30T13:04:42;6.37;;;4.80;;
10050;SDS011;5065;46.942;7.432;2024-01-30T13:07:10;9.27;;;5.73;;
10050;SDS011;5065;46.942;7.432;2024-01-30T13:09:37;9.53;;;4.50;;
10050;SDS011;5065;46.942;7.432;2024-01-30T13:12:06;5.73;;;4.07;;
10050;SDS011;5065;46.942;7.432;2024-01-30T13:14:34;5.90;;;4.50;;
10050;SDS011;5065;46.942;7.432;2024-01-30T13:17:02;5.60;;;4.20;;
10050;SDS011;5065;46.942;7.432;2024-01-30T13:19:29;7.10;;;4.77;;
10050;SDS011;5065;46.942;7.432;2024-01-30T13:21:57;8.43;;;4.20;;
10050;SDS011;5065;46.942;7.432;2024-01-30T13:24:24;7.20;;;4.43;;
10050;SDS011;5065;46.942;7.432;2024-01-30T13:26:52;4.53;;;3.67;;
10050;SDS011;5065;46.942;7.432;2024-01-30T13:29:20;5.73;;;4.17;;
10050;SDS011;5065;46.942;7.432;2024-01-30T13:31:47;8.90;;;4.80;;
10050;SDS011;5065;46.942;7.432;2024-01-30T13:34:15;6.77;;;4.43;;
10050;SDS011;5065;46.942;7.432;2024-01-30T13:36:42;7.07;;;4.37;;
10050;SDS011;5065;46.942;7.432;2024-01-30T13:39:10;4.70;;;4.07;;
10050;SDS011;5065;46.942;7.432;2024-01-30T13:41:37;6.37;;;4.27;;
10050;SDS011;5065;46.942;7.432;2024-01-30T13:44:05;5.47;;;4.27;;
10050;SDS011;5065;46.942;7.432;2024-01-30T13:46:34;7.07;;;4.67;;
10050;SDS011;5065;46.942;7.432;2024-01-30T13:49:02;5.33;;;3.83;;
10050;SDS011;5065;46.942;7.432;2024-01-30T13:51:29;8.23;;;4.70;;
10050;SDS011;5065;46.942;7.432;2024-01-30T13:53:56;5.73;;;4.37;;
10050;SDS011;5065;46.942;7.432;2024-01-30T13:56:23;5.53;;;4.37;;
10050;SDS011;5065;46.942;7.432;2024-01-30T13:58:51;5.50;;;3.90;;
10050;SDS011;5065;46.942;7.432;2024-01-30T14:01:20;6.43;;;4.63;;
10050;SDS011;5065;46.942;7.432;2024-01-30T14:03:49;6.93;;;4.77;;
10050;SDS011;5065;46.942;7.432;2024-01-30T14:06:16;5.77;;;4.10;;
10050;SDS011;5065;46.942;7.432;2024-01-30T14:08:44;8.10;;;4.13;;
10050;SDS011;5065;46.942;7.432;2024-01-30T14:11:11;8.13;;;4.33;;
10050;SDS011;5065;46.942;7.432;2024-01-30T14:13:38;6.70;;;4.83;;
10050;SDS011;5065;46.942;7.432;2024-01-30T14:16:05;7.03;;;4.47;;
10050;SDS011;5065;46.942;7.432;2024-01-30T14:18:33;7.93;;;4.73;;
10050;SDS011;5065;46.942;7.432;2024-01-30T14:21:01;7.80;;;5.83;;
10050;SDS011;5065;46.942;7.432;2024-01-30T14:23:29;6.83;;;5.47;;
10050;SDS011;5065;46.942;7.432;2024-01-30T14:25:56;7.63;;;4.80;;
10050;SDS011;5065;46.942;7.432;2024-01-30T14:28:23;7.47;;;5.00;;
10050;SDS011;5065;46.942;7.432;2024-01-30T14:30:50;7.50;;;4.97;;
10050;SDS011;5065;46.942;7.432;2024-01-30T14:33:17;7.93;;;5.40;;
10050;SDS011;5065;46.942;7.432;2024-01-30T14:35:44;8.87;;;5.40;;
10050;SDS011;5065;46.942;7.432;2024-01-30T14:38:13;7.60;;;5.30;;
10050;SDS011;5065;46.942;7.432;2024-01-30T14:40:41;8.67;;;5.77;;
10050;SDS011;5065;46.942;7.432;2024-01-30T14:43:08;9.10;;;6.67;;
10050;SDS011;5065;46.942;7.432;2024-01-30T14:45:35;8.63;;;5.67;;
10050;SDS011;5065;46.942;7.432;2024-01-30T14:48:03;9.33;;;6.60;;
10050;SDS011;5065;46.942;7.432;2024-01-30T14:50:30;10.97;;;5.60;;
10050;SDS011;5065;46.942;7.432;2024-01-30T14:52:57;8.53;;;6.30;;
10050;SDS011;5065;46.942;7.432;2024-01-30T14:55:26;11.13;;;6.57;;
10050;SDS011;5065;46.942;7.432;2024-01-30T14:57:53;8.97;;;5.63;;
10050;SDS011;5065;46.942;7.432;2024-01-30T15:00:20;10.47;;;6.60;;
10050;SDS011;5065;46.942;7.432;2024-01-30T15:02:48;11.33;;;6.30;;
10050;SDS011;5065;46.942;7.432;2024-01-30T15:05:15;10.90;;;6.93;;